Time;durP1;ratioP1;P1;durP2;ratioP2;P2;SDS_P1;SDS_P2;PMS_P1;PMS_P2;Temp;Humidity;BMP_temperature;BMP_pressure;BME280_temperature;BME280_humidity;BME280_pressure;Samples;Min_cycle;Max_cycle;Signal;HPM_P1;HPM_P2
2022/12/13 00:00:42;;;;;;;49.80;24.03;;;-2.20;99.90;;;;;;5018340;28;20042;-56
2022/12/13 00:06:52;;;;;;;50.17;25.87;;;-2.20;99.90;;;;;;5016898;28;20080;-54
2022/12/13 00:09:18;;;;;;;47.53;24.03;;;-2.20;99.90;;;;;;5001552;28;20072;-57
2022/12/13 00:11:44;;;;;;;52.97;25.33;;;-2.20;99.90;;;;;;5010026;28;20393;-56
2022/12/13 00:14:12;;;;;;;54.93;26.73;;;-2.20;99.90;;;;;;5005504;28;20052;-57
2022/12/13 00:16:39;;;;;;;52.03;26.77;;;-2.30;99.90;;;;;;4999002;28;20053;-57
2022/12/13 00:19:05;;;;;;;45.87;22.80;;;-2.30;99.90;;;;;;5025802;28;20400;-57
2022/12/13 00:21:32;;;;;;;38.73;22.00;;;-2.30;99.90;;;;;;5016988;28;20153;-57
2022/12/13 00:23:59;;;;;;;47.30;24.63;;;-2.30;99.90;;;;;;5013362;28;20200;-57
2022/12/13 00:26:28;;;;;;;47.57;24.07;;;-2.30;99.90;;;;;;4992417;28;20048;-57
2022/12/13 00:28:54;;;;;;;50.50;24.43;;;-2.30;99.90;;;;;;5012979;28;20399;-57
2022/12/13 00:31:22;;;;;;;49.70;23.60;;;-2.30;99.90;;;;;;5030218;28;20033;-57
2022/12/13 00:33:48;;;;;;;47.87;23.60;;;-2.40;99.90;;;;;;5017393;28;20203;-57
2022/12/13 00:36:15;;;;;;;43.03;23.40;;;-2.40;99.90;;;;;;5011354;28;20037;-57
2022/12/13 00:42:31;;;;;;;46.93;23.60;;;-2.40;99.90;;;;;;5024322;28;20365;-57
2022/12/13 01:00:06;;;;;;;46.43;22.23;;;-2.50;99.90;;;;;;5022420;28;20094;-55
2022/12/13 01:02:32;;;;;;;44.00;22.33;;;-2.60;99.90;;;;;;5004514;28;20124;-55
2022/12/13 01:05:00;;;;;;;43.97;22.67;;;-2.60;99.90;;;;;;4988090;28;20484;-55
2022/12/13 01:07:29;;;;;;;45.33;23.90;;;-2.60;99.90;;;;;;4984896;28;20045;-56
2022/12/13 01:09:57;;;;;;;44.93;23.00;;;-2.60;99.90;;;;;;5020909;28;20323;-57
2022/12/13 01:16:06;;;;;;;46.17;23.30;;;-2.50;99.90;;;;;;5025697;28;20128;-53
2022/12/13 01:18:32;;;;;;;46.20;24.00;;;-2.60;99.90;;;;;;5005669;28;20425;-56
2022/12/13 01:21:05;;;;;;;43.37;23.43;;;-2.60;99.90;;;;;;5004062;28;20053;-56
2022/12/13 01:23:32;;;;;;;45.80;23.57;;;-2.60;99.90;;;;;;5012990;28;20041;-55
2022/12/13 01:25:57;;;;;;;48.27;22.40;;;-2.60;99.90;;;;;;4981879;28;20055;-56
2022/12/13 01:28:24;;;;;;;39.23;23.23;;;-2.60;99.90;;;;;;4998859;28;20496;-57
2022/12/13 01:30:58;;;;;;;43.97;23.30;;;-2.60;99.90;;;;;;5024935;28;20052;-56
2022/12/13 01:33:23;;;;;;;45.17;23.17;;;-2.60;99.90;;;;;;5024574;28;20076;-55
2022/12/13 01:35:52;;;;;;;45.17;21.60;;;-2.60;99.90;;;;;;4999522;28;20046;-55
2022/12/13 01:38:19;;;;;;;40.13;22.23;;;-2.60;99.90;;;;;;5027284;28;20044;-56
2022/12/13 01:41:02;;;;;;;44.80;24.53;;;-2.60;99.90;;;;;;5014338;28;20053;-55
2022/12/13 01:43:40;;;;;;;40.63;21.63;;;-2.60;99.90;;;;;;4993378;28;20037;-56
2022/12/13 01:46:06;;;;;;;43.70;22.73;;;-2.60;99.90;;;;;;5024575;28;20115;-56
2022/12/13 01:48:38;;;;;;;45.43;23.33;;;-2.60;99.90;;;;;;4975505;28;20053;-57
2022/12/13 01:51:07;;;;;;;44.00;24.37;;;-2.60;99.90;;;;;;5022801;28;20068;-57
2022/12/13 01:53:36;;;;;;;42.87;22.03;;;-2.60;99.90;;;;;;5004479;28;20060;-56
2022/12/13 01:56:11;;;;;;;45.13;22.83;;;-2.60;99.90;;;;;;4989356;28;20432;-56
2022/12/13 01:58:38;;;;;;;44.30;23.43;;;-2.60;99.90;;;;;;5006822;28;20055;-56
2022/12/13 02:01:04;;;;;;;35.40;18.47;;;-2.60;99.90;;;;;;5005087;28;20094;-57
2022/12/13 02:03:31;;;;;;;44.80;23.13;;;-2.60;99.90;;;;;;4999584;28;20412;-57
2022/12/13 02:06:09;;;;;;;42.83;21.40;;;-2.60;99.90;;;;;;5005206;28;20103;-56
2022/12/13 02:08:40;;;;;;;40.73;20.70;;;-2.60;99.90;;;;;;5001654;28;20041;-55
2022/12/13 02:11:06;;;;;;;48.03;23.33;;;-2.50;99.90;;;;;;5002261;28;20048;-57
2022/12/13 02:13:32;;;;;;;43.63;22.53;;;-2.50;99.90;;;;;;5002807;28;20612;-57
2022/12/13 02:16:16;;;;;;;36.97;20.27;;;-2.50;99.90;;;;;;4995215;28;20046;-57
2022/12/13 02:18:50;;;;;;;48.53;24.10;;;-2.50;99.90;;;;;;5002765;28;20574;-56
2022/12/13 02:21:22;;;;;;;49.17;23.80;;;-2.50;99.90;;;;;;5034338;28;20049;-57
2022/12/13 02:24:26;;;;;;;39.77;21.23;;;-2.60;99.90;;;;;;5015127;28;20045;-56
2022/12/13 02:26:57;;;;;;;43.03;22.17;;;-2.60;99.90;;;;;;5031007;28;20411;-56
2022/12/13 02:29:35;;;;;;;38.90;20.30;;;-2.60;99.90;;;;;;5003545;28;20085;-56
2022/12/13 02:32:30;;;;;;;41.83;21.27;;;-2.70;99.90;;;;;;5000548;28;20073;-56
2022/12/13 02:34:56;;;;;;;37.80;20.33;;;-2.70;99.90;;;;;;5013545;28;20040;-57
2022/12/13 02:37:59;;;;;;;43.17;21.23;;;-2.70;99.90;;;;;;5006551;28;20037;-56
2022/12/13 02:40:43;;;;;;;44.93;21.27;;;-2.70;99.90;;;;;;5020171;28;20457;-57
2022/12/13 02:43:28;;;;;;;40.97;20.23;;;-2.70;99.90;;;;;;5002818;28;20238;-57
2022/12/13 02:45:56;;;;;;;;;;;-2.70;99.90;;;;;;5004649;28;20045;-56
2022/12/13 02:48:29;;;;;;;42.50;21.17;;;-2.70;99.90;;;;;;4998067;28;19950;-58
2022/12/13 02:50:57;;;;;;;41.00;20.93;;;-2.70;99.90;;;;;;5016087;28;20044;-57
2022/12/13 02:53:24;;;;;;;41.77;23.17;;;-2.70;99.90;;;;;;5021346;28;20060;-57
2022/12/13 02:55:50;;;;;;;42.07;22.63;;;-2.70;99.90;;;;;;5019632;28;20503;-57
2022/12/13 02:58:26;;;;;;;44.93;21.97;;;-2.80;99.90;;;;;;5023383;28;20041;-56
2022/12/13 03:01:07;;;;;;;38.53;21.10;;;-2.80;99.90;;;;;;4997006;28;20042;-53
2022/12/13 03:03:53;;;;;;;42.37;20.67;;;-2.80;99.90;;;;;;5006168;28;20049;-56
2022/12/13 03:06:28;;;;;;;38.50;21.20;;;-2.80;99.90;;;;;;5004944;28;20511;-56
2022/12/13 03:09:16;;;;;;;39.13;20.90;;;-2.80;99.90;;;;;;5003285;28;20111;-56
2022/12/13 03:15:13;;;;;;;44.33;21.47;;;-2.90;99.90;;;;;;5001558;28;20045;-55
2022/12/13 03:17:46;;;;;;;40.57;20.27;;;-2.80;99.90;;;;;;4977928;28;20151;-55
2022/12/13 03:20:17;;;;;;;37.47;20.40;;;-2.80;99.90;;;;;;5006729;28;20126;-56
2022/12/13 03:22:42;;;;;;;40.37;22.13;;;-2.90;99.90;;;;;;5019016;28;20045;-54
2022/12/13 03:25:08;;;;;;;43.57;22.17;;;-2.90;99.90;;;;;;5022857;28;20086;-56
2022/12/13 03:27:34;;;;;;;38.50;18.20;;;-2.90;99.90;;;;;;5006091;28;20045;-55
2022/12/13 03:30:00;;;;;;;37.83;19.80;;;-2.90;99.90;;;;;;4989257;28;20041;-54
2022/12/13 03:32:25;;;;;;;40.40;20.47;;;-2.90;99.90;;;;;;5026714;28;20041;-56
2022/12/13 03:34:51;;;;;;;40.07;20.53;;;-2.90;99.90;;;;;;4996324;28;20272;-56
2022/12/13 03:37:17;;;;;;;38.43;19.60;;;-2.90;99.90;;;;;;5001254;28;20100;-57
2022/12/13 03:39:45;;;;;;;41.60;22.27;;;-2.90;99.90;;;;;;4986672;28;20200;-54
2022/12/13 03:42:11;;;;;;;45.83;21.57;;;-2.90;99.90;;;;;;5011753;28;20046;-56
2022/12/13 03:44:37;;;;;;;39.30;20.40;;;-2.90;99.90;;;;;;5007422;28;20044;-54
2022/12/13 03:47:02;;;;;;;41.07;20.77;;;-2.90;99.90;;;;;;5007520;28;20050;-56
2022/12/13 03:49:28;;;;;;;39.83;19.43;;;-3.00;99.90;;;;;;5008790;28;20038;-54
2022/12/13 03:51:54;;;;;;;39.80;19.67;;;-3.00;99.90;;;;;;4994469;28;20037;-55
2022/12/13 03:54:19;;;;;;;33.87;20.17;;;-3.10;99.90;;;;;;4980627;28;20244;-55
2022/12/13 03:56:45;;;;;;;38.87;19.93;;;-3.10;99.90;;;;;;4986323;28;20153;-53
2022/12/13 03:59:11;;;;;;;38.83;19.73;;;-3.10;99.90;;;;;;5014245;28;20515;-56
2022/12/13 04:01:37;;;;;;;39.47;19.57;;;-3.10;99.90;;;;;;5002376;28;20041;-57
2022/12/13 04:04:02;;;;;;;37.30;19.43;;;-3.10;99.90;;;;;;4986394;28;20038;-56
2022/12/13 04:06:28;;;;;;;36.30;18.83;;;-3.20;99.90;;;;;;5013276;28;20041;-56
2022/12/13 04:08:54;;;;;;;38.83;18.37;;;-3.20;99.90;;;;;;4997424;28;20045;-53
2022/12/13 04:14:23;;;;;;;37.80;19.95;;;-3.20;99.90;;;;;;4942248;28;20101;-56
2022/12/13 04:16:51;;;;;;;34.17;17.63;;;-3.20;99.90;;;;;;4925866;28;20474;-57
2022/12/13 04:19:16;;;;;;;34.10;19.00;;;-3.20;99.90;;;;;;4941572;28;20296;-56
2022/12/13 04:21:42;;;;;;;38.77;18.97;;;-3.20;99.90;;;;;;5000632;28;20459;-55
2022/12/13 04:24:08;;;;;;;38.40;19.43;;;-3.20;99.90;;;;;;4989988;28;20085;-57
2022/12/13 04:26:34;;;;;;;40.47;19.23;;;-3.10;99.90;;;;;;5017221;28;20403;-56
2022/12/13 04:28:59;;;;;;;37.87;21.27;;;-3.10;99.90;;;;;;5002748;28;20041;-56
2022/12/13 04:31:25;;;;;;;39.67;19.53;;;-3.10;99.90;;;;;;5003470;28;20185;-56
2022/12/13 04:33:51;;;;;;;33.53;18.53;;;-3.10;99.90;;;;;;5001455;28;20041;-57
2022/12/13 04:36:24;;;;;;;39.23;18.67;;;-3.10;99.90;;;;;;5001942;28;20068;-55
2022/12/13 04:38:50;;;;;;;35.33;18.35;;;-3.10;99.90;;;;;;4982205;28;20037;-57
2022/12/13 04:41:18;;;;;;;35.90;18.77;;;-3.10;99.90;;;;;;5005655;28;20045;-57
2022/12/13 04:43:49;;;;;;;37.90;19.50;;;-3.10;99.90;;;;;;4977957;28;20038;-57
2022/12/13 04:46:14;;;;;;;41.13;21.03;;;-3.10;99.90;;;;;;5005709;28;20045;-57
2022/12/13 04:48:40;;;;;;;39.03;20.03;;;-3.10;99.90;;;;;;5025079;22;20114;-59
2022/12/13 04:51:06;;;;;;;41.13;20.20;;;-3.10;99.90;;;;;;5045140;28;20407;-57
2022/12/13 04:53:31;;;;;;;39.57;19.73;;;-3.10;99.90;;;;;;5032338;28;20124;-56
2022/12/13 04:55:58;;;;;;;38.13;19.27;;;-3.10;99.90;;;;;;5021570;28;20045;-57
2022/12/13 04:58:24;;;;;;;36.37;19.83;;;-3.10;99.90;;;;;;5033459;28;20041;-56
2022/12/13 05:00:49;;;;;;;38.03;19.23;;;-3.10;99.90;;;;;;5015991;28;20045;-57
2022/12/13 05:03:15;;;;;;;37.67;21.20;;;-3.10;99.90;;;;;;5035930;28;20056;-57
2022/12/13 05:05:41;;;;;;;39.07;21.83;;;-3.10;99.90;;;;;;5036216;28;20041;-59
2022/12/13 05:08:07;;;;;;;37.03;19.60;;;-3.10;99.90;;;;;;5041142;28;20072;-57
2022/12/13 05:10:34;;;;;;;36.67;19.87;;;-3.10;99.90;;;;;;5036567;28;20037;-56
2022/12/13 05:13:00;;;;;;;38.13;19.20;;;-3.10;99.90;;;;;;5036371;28;20045;-59
2022/12/13 05:15:26;;;;;;;36.00;20.10;;;-3.10;99.90;;;;;;5045757;28;20399;-58
2022/12/13 05:17:52;;;;;;;45.70;21.23;;;-3.10;99.90;;;;;;5034121;28;20170;-57
2022/12/13 05:20:17;;;;;;;39.20;21.13;;;-3.10;99.90;;;;;;5041592;28;20136;-55
2022/12/13 05:22:43;;;;;;;38.93;20.77;;;-3.20;99.90;;;;;;5046772;28;20037;-58
2022/12/13 05:25:09;;;;;;;43.93;20.40;;;-2.80;99.90;;;;;;5042105;28;20056;-57
2022/12/13 05:27:35;;;;;;;41.80;21.30;;;-3.20;99.90;;;;;;5021020;28;20049;-56
2022/12/13 05:30:00;;;;;;;35.07;18.97;;;-3.20;99.90;;;;;;5030244;28;20044;-59
2022/12/13 05:32:26;;;;;;;40.00;20.37;;;-3.20;99.90;;;;;;5043847;28;20078;-58
2022/12/13 05:34:55;;;;;;;38.63;20.33;;;-3.20;99.90;;;;;;5041188;28;20055;-57
2022/12/13 05:37:21;;;;;;;36.73;20.17;;;-3.20;99.90;;;;;;5045376;28;20045;-58
2022/12/13 05:39:49;;;;;;;33.20;18.93;;;-3.20;99.90;;;;;;5041746;28;20052;-57
2022/12/13 05:42:15;;;;;;;41.80;22.30;;;-3.20;99.90;;;;;;5026262;28;20063;-56
2022/12/13 05:44:40;;;;;;;38.97;21.70;;;-3.20;99.90;;;;;;5010084;28;20499;-55
2022/12/13 05:47:06;;;;;;;38.23;19.10;;;-3.20;99.90;;;;;;5027314;28;20463;-57
2022/12/13 05:49:32;;;;;;;38.33;20.50;;;-3.30;99.90;;;;;;5040885;28;20036;-57
2022/12/13 05:51:57;;;;;;;40.63;20.50;;;-3.20;99.90;;;;;;5035306;28;20452;-56
2022/12/13 05:54:23;;;;;;;37.43;21.83;;;-3.20;99.90;;;;;;5006547;28;20107;-56
2022/12/13 05:56:49;;;;;;;37.40;20.03;;;-3.30;99.90;;;;;;5023172;28;20399;-55
2022/12/13 05:59:14;;;;;;;36.63;20.20;;;-3.20;99.90;;;;;;5035959;28;20053;-56
2022/12/13 06:01:43;;;;;;;36.00;19.90;;;-3.30;99.90;;;;;;5033848;28;20119;-53
2022/12/13 06:04:09;;;;;;;37.23;19.33;;;-3.30;99.90;;;;;;5035847;28;20137;-57
2022/12/13 06:06:34;;;;;;;35.87;20.33;;;-3.40;99.90;;;;;;5038691;28;20052;-56
2022/12/13 06:09:00;;;;;;;32.70;18.03;;;-3.30;99.90;;;;;;5036310;28;21001;-54
2022/12/13 06:11:27;;;;;;;35.57;19.30;;;-3.30;99.90;;;;;;5031958;28;20040;-56
2022/12/13 06:13:52;;;;;;;37.90;20.67;;;-3.30;99.90;;;;;;5039789;28;20488;-56
2022/12/13 06:16:18;;;;;;;35.27;19.20;;;-3.30;99.90;;;;;;5032238;28;20057;-54
2022/12/13 06:18:44;;;;;;;38.90;19.87;;;-3.30;99.90;;;;;;5034553;28;20033;-58
2022/12/13 06:21:09;;;;;;;34.60;19.07;;;-3.40;99.90;;;;;;5050574;28;20037;-53
2022/12/13 06:23:35;;;;;;;32.10;17.27;;;-3.40;99.90;;;;;;5035046;28;20040;-56
2022/12/13 06:26:05;;;;;;;39.10;20.53;;;-3.40;99.90;;;;;;5038645;28;20072;-54
2022/12/13 06:28:31;;;;;;;37.87;19.30;;;-3.30;99.90;;;;;;5035504;28;20128;-55
2022/12/13 06:31:04;;;;;;;32.87;18.17;;;-3.40;99.90;;;;;;5026689;28;20040;-55
2022/12/13 06:33:34;;;;;;;39.70;20.03;;;-3.30;99.90;;;;;;5030378;28;20115;-59
2022/12/13 06:36:00;;;;;;;40.27;21.30;;;-3.30;99.90;;;;;;5033306;28;20076;-57
2022/12/13 06:38:26;;;;;;;35.70;19.80;;;-3.30;99.90;;;;;;5035302;28;20095;-58
2022/12/13 06:40:51;;;;;;;32.40;19.00;;;-3.30;99.90;;;;;;5035787;28;20044;-59
2022/12/13 06:43:19;;;;;;;35.50;18.27;;;-3.30;99.90;;;;;;5037294;28;20047;-59
2022/12/13 06:45:45;;;;;;;34.43;19.40;;;-3.30;99.90;;;;;;5032659;28;20052;-57
2022/12/13 06:48:14;;;;;;;37.70;20.23;;;-3.30;99.90;;;;;;5039736;28;20959;-53
2022/12/13 06:50:40;;;;;;;35.83;19.60;;;-3.20;99.90;;;;;;5038248;28;20131;-59
2022/12/13 06:53:05;;;;;;;37.17;18.27;;;-3.30;99.90;;;;;;5038132;28;20083;-55
2022/12/13 06:55:31;;;;;;;34.73;20.57;;;-3.30;99.90;;;;;;5022646;28;20055;-56
2022/12/13 06:57:58;;;;;;;33.57;19.47;;;-3.30;99.90;;;;;;5037261;28;20064;-57
2022/12/13 07:00:26;;;;;;;42.17;21.47;;;-3.30;99.90;;;;;;5025652;28;20045;-54
2022/12/13 07:02:55;;;;;;;34.33;19.23;;;-3.30;99.90;;;;;;5024705;28;20265;-54
2022/12/13 07:05:21;;;;;;;33.90;17.70;;;-3.30;99.90;;;;;;5032355;28;20087;-55
2022/12/13 07:07:47;;;;;;;37.33;20.60;;;-3.30;99.90;;;;;;5041970;28;20039;-56
2022/12/13 07:10:13;;;;;;;33.03;18.73;;;-3.30;99.90;;;;;;5013911;28;20720;-58
2022/12/13 07:12:39;;;;;;;39.00;19.90;;;-3.30;99.90;;;;;;5012370;28;20049;-56
2022/12/13 07:15:05;;;;;;;33.53;19.10;;;-3.30;99.90;;;;;;5029105;28;20514;-58
2022/12/13 07:17:34;;;;;;;35.57;19.60;;;-3.30;99.90;;;;;;5005375;28;20045;-56
2022/12/13 07:20:06;;;;;;;34.03;19.23;;;-3.30;99.90;;;;;;5024766;28;20045;-58
2022/12/13 07:22:32;;;;;;;30.87;18.93;;;-3.30;99.90;;;;;;5009516;28;20561;-58
2022/12/13 07:24:57;;;;;;;35.33;20.57;;;-3.30;99.90;;;;;;5055923;28;20048;-58
2022/12/13 07:27:23;;;;;;;39.10;19.37;;;-3.30;99.90;;;;;;5037832;28;20037;-58
2022/12/13 07:29:49;;;;;;;33.53;18.60;;;-3.30;99.90;;;;;;5040746;28;20535;-57
2022/12/13 07:32:14;;;;;;;36.53;19.93;;;-3.30;99.90;;;;;;5024237;28;20047;-58
2022/12/13 07:34:40;;;;;;;34.83;19.03;;;-3.30;99.90;;;;;;5038422;28;20132;-54
2022/12/13 07:37:08;;;;;;;36.20;19.77;;;-3.30;99.90;;;;;;5037595;28;20083;-56
2022/12/13 07:39:34;;;;;;;37.93;20.00;;;-3.30;99.90;;;;;;5037986;28;20132;-57
2022/12/13 07:41:59;;;;;;;32.53;19.37;;;-3.30;99.90;;;;;;5034520;28;20155;-56
2022/12/13 07:44:25;;;;;;;37.33;19.57;;;-3.30;99.90;;;;;;5036052;28;20045;-56
2022/12/13 07:46:54;;;;;;;33.17;18.07;;;-3.30;99.90;;;;;;5045366;28;20040;-60
2022/12/13 07:49:20;;;;;;;39.83;21.90;;;-3.30;99.90;;;;;;5039263;28;20043;-55
2022/12/13 07:51:46;;;;;;;35.90;19.43;;;-3.30;99.90;;;;;;5034507;28;20453;-59
2022/12/13 07:54:11;;;;;;;37.67;20.07;;;-3.30;99.90;;;;;;5022636;28;20037;-56
2022/12/13 07:56:37;;;;;;;34.90;18.07;;;-3.30;99.90;;;;;;5037741;28;20051;-57
2022/12/13 07:59:03;;;;;;;36.53;18.20;;;-3.30;99.90;;;;;;5022458;28;20049;-59
2022/12/13 08:01:33;;;;;;;30.80;18.00;;;-3.30;99.90;;;;;;5008672;28;20415;-58
2022/12/13 08:04:00;;;;;;;36.37;19.67;;;-3.30;99.90;;;;;;5016129;28;20549;-58
2022/12/13 08:06:25;;;;;;;41.10;21.33;;;-3.20;99.90;;;;;;5029493;28;20501;-59
2022/12/13 08:08:55;;;;;;;37.13;19.50;;;-3.20;99.90;;;;;;5033207;28;20132;-60
2022/12/13 08:11:21;;;;;;;35.63;20.47;;;-3.20;99.90;;;;;;5018447;28;20091;-57
2022/12/13 08:13:47;;;;;;;35.60;19.07;;;-3.10;99.90;;;;;;5035467;28;20041;-56
2022/12/13 08:16:16;;;;;;;35.20;18.77;;;-3.20;99.90;;;;;;5032610;28;20040;-55
2022/12/13 08:18:43;;;;;;;41.00;20.50;;;-3.10;99.90;;;;;;5022432;28;20048;-56
2022/12/13 08:21:09;;;;;;;41.20;22.97;;;-3.10;99.90;;;;;;5031042;28;20047;-56
2022/12/13 08:23:35;;;;;;;44.93;22.60;;;-3.10;99.90;;;;;;5035720;28;20433;-57
2022/12/13 08:26:03;;;;;;;41.13;21.43;;;-3.10;99.90;;;;;;5028484;28;20399;-58
2022/12/13 08:28:32;;;;;;;37.90;20.80;;;-3.10;99.90;;;;;;5045850;28;20037;-56
2022/12/13 08:31:10;;;;;;;38.77;21.97;;;-3.00;99.90;;;;;;5026317;28;20099;-60
2022/12/13 08:33:36;;;;;;;39.43;20.30;;;-3.00;99.90;;;;;;5030171;28;20041;-58
2022/12/13 08:36:15;;;;;;;42.13;21.97;;;-3.00;99.90;;;;;;5033516;28;20452;-55
2022/12/13 08:38:41;;;;;;;36.47;21.63;;;-2.90;99.90;;;;;;5018275;28;20240;-58
2022/12/13 08:41:08;;;;;;;42.10;23.13;;;-2.90;99.90;;;;;;5026314;28;20033;-59
2022/12/13 08:43:34;;;;;;;43.07;22.80;;;-2.90;99.90;;;;;;5033896;28;20480;-56
2022/12/13 08:46:01;;;;;;;43.60;23.37;;;-2.80;99.90;;;;;;5033783;28;20037;-57
2022/12/13 08:48:27;;;;;;;38.77;22.87;;;-2.80;99.90;;;;;;5032030;28;20322;-55
2022/12/13 08:50:53;;;;;;;47.20;23.17;;;-2.80;99.90;;;;;;5035356;28;20040;-59
2022/12/13 08:53:19;;;;;;;47.27;25.00;;;-2.70;99.90;;;;;;5043520;28;20486;-57
2022/12/13 08:55:45;;;;;;;46.03;22.70;;;-2.70;99.90;;;;;;5055752;28;20046;-58
2022/12/13 08:58:10;;;;;;;43.67;22.10;;;-2.60;99.90;;;;;;5039821;28;20056;-59
2022/12/13 09:00:37;;;;;;;40.37;22.30;;;-2.50;99.90;;;;;;5034021;28;20045;-57
2022/12/13 09:03:04;;;;;;;44.67;23.90;;;-2.40;99.90;;;;;;5039856;28;20419;-58
2022/12/13 09:05:32;;;;;;;42.50;23.07;;;-2.30;99.90;;;;;;5040292;28;20044;-57
2022/12/13 09:07:58;;;;;;;44.70;25.13;;;-2.30;99.90;;;;;;5040194;28;20120;-57
2022/12/13 09:10:24;;;;;;;43.30;22.97;;;-2.20;99.90;;;;;;5038723;28;20183;-60
2022/12/13 09:12:50;;;;;;;38.80;22.57;;;-2.10;99.90;;;;;;5041839;28;20351;-57
2022/12/13 09:15:19;;;;;;;47.47;25.07;;;-2.10;99.90;;;;;;5035325;28;20090;-61
2022/12/13 09:17:45;;;;;;;41.63;22.67;;;-2.00;99.90;;;;;;5032394;28;20041;-56
2022/12/13 09:20:11;;;;;;;39.13;23.30;;;-1.90;99.90;;;;;;5021372;28;20491;-55
2022/12/13 09:22:38;;;;;;;41.20;24.37;;;-1.80;99.90;;;;;;5036793;28;20072;-58
2022/12/13 09:25:04;;;;;;;45.83;25.57;;;-1.70;99.90;;;;;;5038941;28;20059;-55
2022/12/13 09:27:31;;;;;;;41.60;24.53;;;-1.60;99.90;;;;;;5043230;28;20057;-59
2022/12/13 09:29:57;;;;;;;43.77;24.10;;;-1.50;99.90;;;;;;5032736;28;20045;-60
2022/12/13 09:32:24;;;;;;;44.27;25.07;;;-1.50;99.90;;;;;;5028827;28;20036;-58
2022/12/13 09:34:49;;;;;;;46.93;26.10;;;-1.40;99.90;;;;;;5035868;28;20041;-58
2022/12/13 09:37:16;;;;;;;45.63;24.80;;;-1.30;99.90;;;;;;4993924;28;20045;-59
2022/12/13 09:39:42;;;;;;;40.13;22.77;;;-1.20;99.90;;;;;;5033656;28;20582;-58
2022/12/13 09:42:23;;;;;;;47.23;25.23;;;-1.10;99.90;;;;;;5042236;28;20049;-54
2022/12/13 09:44:55;;;;;;;42.43;25.00;;;-1.00;99.90;;;;;;5032269;28;20056;-60
2022/12/13 09:47:54;;;;;;;49.97;26.73;;;-0.90;99.90;;;;;;5041031;28;20107;-57
2022/12/13 09:50:28;;;;;;;47.13;26.80;;;-0.80;99.90;;;;;;5031657;28;20493;-58
2022/12/13 09:52:55;;;;;;;45.63;25.90;;;-0.80;99.90;;;;;;5032093;28;20037;-59
2022/12/13 09:55:29;;;;;;;50.77;26.33;;;-0.70;99.90;;;;;;5037504;28;20053;-58
2022/12/13 09:57:56;;;;;;;47.22;25.90;;;-0.60;99.90;;;;;;5034781;28;20033;-59
2022/12/13 10:00:24;;;;;;;51.07;26.60;;;-0.60;99.90;;;;;;5032270;28;20603;-57
2022/12/13 10:02:56;;;;;;;44.23;25.63;;;-0.50;99.90;;;;;;5033569;28;20044;-58
2022/12/13 10:05:30;;;;;;;49.20;26.43;;;-0.50;99.90;;;;;;5037557;28;20036;-60
2022/12/13 10:07:59;;;;;;;44.37;24.70;;;-0.40;99.90;;;;;;5036794;28;20045;-61
2022/12/13 10:10:25;;;;;;;50.77;27.30;;;-0.30;99.90;;;;;;5020543;28;20051;-61
2022/12/13 10:13:18;;;;;;;43.40;24.80;;;-0.30;99.90;;;;;;5027253;28;20041;-60
2022/12/13 10:15:52;;;;;;;43.73;25.63;;;-0.20;99.90;;;;;;5030092;28;20151;-60
2022/12/13 10:18:29;;;;;;;44.00;24.63;;;-0.10;99.90;;;;;;5017801;28;20041;-58
2022/12/13 10:20:56;;;;;;;42.10;25.97;;;-0.10;99.90;;;;;;5052906;28;20037;-61
2022/12/13 10:23:21;;;;;;;45.30;26.70;;;0.00;99.90;;;;;;5034469;28;20044;-59
2022/12/13 10:25:55;;;;;;;43.87;26.30;;;0.10;99.90;;;;;;5037788;28;20299;-61
2022/12/13 10:28:32;;;;;;;45.65;26.88;;;0.10;99.90;;;;;;5027733;28;20101;-61
2022/12/13 10:30:58;;;;;;;40.93;24.83;;;0.20;99.90;;;;;;5030844;28;20541;-59
2022/12/13 10:33:29;;;;;;;44.15;26.25;;;0.30;99.90;;;;;;5033229;28;20029;-61
2022/12/13 10:36:06;;;;;;;43.43;24.77;;;0.30;99.90;;;;;;5041403;28;20440;-57
2022/12/13 10:38:35;;;;;;;44.93;26.10;;;0.30;99.90;;;;;;5039741;28;20115;-57
2022/12/13 10:41:01;;;;;;;43.33;24.23;;;0.40;99.90;;;;;;5039514;28;20450;-57
2022/12/13 10:43:29;;;;;;;45.13;25.80;;;0.50;99.90;;;;;;5037170;28;20388;-59
2022/12/13 10:45:57;;;;;;;41.87;25.33;;;0.50;99.90;;;;;;5024852;28;20492;-50
2022/12/13 10:48:34;;;;;;;42.00;26.17;;;0.60;99.90;;;;;;5037732;28;20048;-58
2022/12/13 10:51:09;;;;;;;41.42;24.88;;;0.70;99.90;;;;;;5039615;28;20037;-60
2022/12/13 10:53:50;;;;;;;39.20;24.63;;;0.80;99.90;;;;;;5057900;22;20098;-63
2022/12/13 10:56:20;;;;;;;37.53;22.97;;;0.80;99.90;;;;;;5045063;28;20041;-62
2022/12/13 10:58:51;;;;;;;41.13;25.27;;;0.90;99.90;;;;;;5044479;28;20044;-62
2022/12/13 11:01:27;;;;;;;41.42;25.00;;;0.90;99.90;;;;;;5035354;28;20068;-62
2022/12/13 11:03:59;;;;;;;44.50;25.63;;;1.00;99.90;;;;;;5040691;28;20044;-62
2022/12/13 11:06:26;;;;;;;41.00;25.42;;;1.00;99.90;;;;;;5036508;28;20041;-63
2022/12/13 11:08:53;;;;;;;43.35;24.23;;;1.10;99.90;;;;;;5047153;28;20558;-62
2022/12/13 11:11:27;;;;;;;42.08;24.77;;;1.10;99.90;;;;;;5027607;28;20544;-63
2022/12/13 11:14:00;;;;;;;43.75;24.95;;;1.10;99.90;;;;;;5024445;28;20136;-63
2022/12/13 11:16:37;;;;;;;46.15;25.63;;;1.10;99.90;;;;;;5033637;28;20071;-63
2022/12/13 11:19:10;;;;;;;42.05;24.75;;;1.20;99.90;;;;;;5023721;28;20453;-63
2022/12/13 11:21:38;;;;;;;43.67;25.10;;;1.20;99.90;;;;;;5038867;28;20040;-63
2022/12/13 11:24:07;;;;;;;39.50;25.50;;;1.20;99.90;;;;;;5039864;28;20048;-62
2022/12/13 11:26:41;;;;;;;44.85;25.90;;;1.30;99.90;;;;;;5035762;28;20387;-62
2022/12/13 11:29:52;;;;;;;45.60;24.77;;;1.30;99.90;;;;;;5044186;28;20053;-62
2022/12/13 11:32:58;;;;;;;44.10;23.92;;;1.40;99.90;;;;;;5031644;28;20044;-62
2022/12/13 11:35:33;;;;;;;38.95;24.33;;;1.50;99.90;;;;;;5019212;28;20040;-62
2022/12/13 11:38:10;;;;;;;40.22;23.10;;;1.50;99.90;;;;;;5025149;28;20044;-63
2022/12/13 11:40:48;;;;;;;38.05;23.17;;;1.60;99.90;;;;;;5039721;28;20173;-63
2022/12/13 11:43:31;;;;;;;45.30;24.42;;;1.70;99.90;;;;;;5023074;28;20121;-62
2022/12/13 11:46:02;;;;;;;40.92;23.90;;;1.80;99.90;;;;;;5045713;28;20050;-63
2022/12/13 11:49:06;;;;;;;38.80;25.50;;;1.80;99.90;;;;;;5024881;28;20052;-63
2022/12/13 11:51:52;;;;;;;39.83;24.48;;;1.90;99.90;;;;;;5032447;28;20398;-63
2022/12/13 11:54:27;;;;;;;36.10;23.05;;;1.90;99.90;;;;;;5036652;28;20033;-62
2022/12/13 11:56:55;;;;;;;36.42;23.17;;;1.90;99.90;;;;;;5042944;28;20037;-63
2022/12/13 11:59:36;;;;;;;39.03;23.02;;;1.80;99.90;;;;;;5057985;28;20178;-63
2022/12/13 12:02:21;;;;;;;36.72;23.45;;;1.80;99.90;;;;;;5056781;28;20032;-63
2022/12/13 12:04:49;;;;;;;38.67;21.77;;;1.90;99.90;;;;;;5042333;28;20109;-63
2022/12/13 12:07:20;;;;;;;39.80;22.55;;;1.90;99.90;;;;;;5024611;28;20097;-64
2022/12/13 12:10:02;;;;;;;37.88;23.67;;;1.90;99.90;;;;;;5041451;28;20055;-64
2022/12/13 12:12:34;;;;;;;35.17;20.55;;;1.90;99.90;;;;;;5051262;28;20044;-63
2022/12/13 12:15:20;;;;;;;39.25;22.90;;;1.80;99.90;;;;;;5044154;28;20509;-63
2022/12/13 12:17:49;;;;;;;36.38;22.38;;;1.90;99.90;;;;;;5050938;28;20102;-64
2022/12/13 12:20:22;;;;;;;42.50;24.17;;;1.90;99.90;;;;;;5027274;28;20504;-62
2022/12/13 12:23:21;;;;;;;38.92;24.38;;;1.90;99.90;;;;;;5048336;28;20048;-63
2022/12/13 12:25:56;;;;;;;36.20;22.23;;;1.90;99.90;;;;;;5040145;28;20047;-63
2022/12/13 12:28:22;;;;;;;34.97;22.45;;;1.90;99.90;;;;;;5032699;28;20174;-63
2022/12/13 12:31:06;;;;;;;34.45;21.20;;;1.90;99.90;;;;;;5041115;28;20119;-62
2022/12/13 12:34:12;;;;;;;35.95;21.95;;;2.00;99.90;;;;;;5035916;28;20048;-62
2022/12/13 12:36:56;;;;;;;36.28;21.98;;;1.90;99.90;;;;;;5039894;28;20527;-63
2022/12/13 12:39:24;;;;;;;;;;;2.00;99.90;;;;;;5029111;28;20092;-63
2022/12/13 12:42:16;;;;;;;35.30;20.40;;;2.00;99.90;;;;;;5037711;28;19917;-62
2022/12/13 12:44:49;;;;;;;33.13;21.10;;;2.00;99.90;;;;;;5052105;28;20053;-63
2022/12/13 12:47:33;;;;;;;32.38;20.45;;;1.90;99.90;;;;;;5045620;28;20048;-63
2022/12/13 12:50:23;;;;;;;32.85;19.90;;;2.00;99.90;;;;;;5037024;28;20045;-63
2022/12/13 12:53:16;;;;;;;31.48;18.92;;;1.90;99.90;;;;;;5054447;28;20117;-63
2022/12/13 12:55:54;;;;;;;31.83;19.08;;;1.80;99.90;;;;;;5037585;28;20045;-63
2022/12/13 12:58:58;;;;;;;34.10;20.90;;;1.80;99.90;;;;;;5024809;28;20040;-64
2022/12/13 13:01:49;;;;;;;31.08;19.40;;;1.70;99.90;;;;;;5054225;28;20044;-63
2022/12/13 13:04:18;;;;;;;34.45;20.95;;;1.70;99.90;;;;;;5062608;28;20048;-62
2022/12/13 13:06:50;;;;;;;32.83;18.67;;;1.60;99.90;;;;;;5043338;28;20083;-63
2022/12/13 13:09:18;;;;;;;32.97;18.67;;;1.70;99.90;;;;;;5031559;28;20511;-63
2022/12/13 13:11:46;;;;;;;37.47;19.73;;;1.60;99.90;;;;;;5030630;28;20187;-63
2022/12/13 13:14:31;;;;;;;32.08;19.75;;;1.60;99.90;;;;;;5054160;28;20385;-63
2022/12/13 13:17:20;;;;;;;32.65;18.98;;;1.60;99.90;;;;;;5044565;28;20170;-63
2022/12/13 13:19:48;;;;;;;32.42;19.92;;;1.60;99.90;;;;;;5039374;28;20113;-63